sensor_id;sensor_type;location;lat;lon;timestamp;P1;durP1;ratioP1;P2;durP2;ratioP2
53961;SDS011;39868;53.398;6.564;2022-07-24T00:00:41;4.72;;;3.85;;
53961;SDS011;39868;53.398;6.564;2022-07-24T00:03:08;5.50;;;4.15;;
53961;SDS011;39868;53.398;6.564;2022-07-24T00:05:36;7.13;;;3.92;;
53961;SDS011;39868;53.398;6.564;2022-07-24T00:08:03;5.57;;;3.83;;
53961;SDS011;39868;53.398;6.564;2022-07-24T00:10:31;5.00;;;3.47;;
53961;SDS011;39868;53.398;6.564;2022-07-24T00:12:59;4.55;;;3.45;;
53961;SDS011;39868;53.398;6.564;2022-07-24T00:15:27;4.28;;;3.47;;
53961;SDS011;39868;53.398;6.564;2022-07-24T00:17:54;5.28;;;3.47;;
53961;SDS011;39868;53.398;6.564;2022-07-24T00:20:22;5.28;;;2.97;;
53961;SDS011;39868;53.398;6.564;2022-07-24T00:22:49;4.07;;;3.38;;
53961;SDS011;39868;53.398;6.564;2022-07-24T00:25:17;4.63;;;3.08;;
53961;SDS011;39868;53.398;6.564;2022-07-24T00:27:44;5.50;;;3.28;;
53961;SDS011;39868;53.398;6.564;2022-07-24T00:30:12;3.75;;;2.90;;
53961;SDS011;39868;53.398;6.564;2022-07-24T00:32:39;4.80;;;2.92;;
53961;SDS011;39868;53.398;6.564;2022-07-24T00:35:09;3.67;;;2.95;;
53961;SDS011;39868;53.398;6.564;2022-07-24T00:37:39;5.72;;;3.40;;
53961;SDS011;39868;53.398;6.564;2022-07-24T00:40:07;3.92;;;3.05;;
53961;SDS011;39868;53.398;6.564;2022-07-24T00:42:35;3.00;;;2.70;;
53961;SDS011;39868;53.398;6.564;2022-07-24T00:45:02;3.25;;;2.88;;
53961;SDS011;39868;53.398;6.564;2022-07-24T00:47:49;3.53;;;2.80;;
53961;SDS011;39868;53.398;6.564;2022-07-24T00:50:17;3.33;;;2.70;;
53961;SDS011;39868;53.398;6.564;2022-07-24T00:52:45;3.55;;;2.78;;
53961;SDS011;39868;53.398;6.564;2022-07-24T00:55:13;4.47;;;2.83;;
53961;SDS011;39868;53.398;6.564;2022-07-24T00:57:41;4.25;;;3.00;;
53961;SDS011;39868;53.398;6.564;2022-07-24T01:00:10;3.65;;;3.05;;
53961;SDS011;39868;53.398;6.564;2022-07-24T01:02:39;3.25;;;2.72;;
53961;SDS011;39868;53.398;6.564;2022-07-24T01:05:11;4.60;;;2.97;;
53961;SDS011;39868;53.398;6.564;2022-07-24T01:07:39;3.72;;;2.80;;
53961;SDS011;39868;53.398;6.564;2022-07-24T01:10:07;3.20;;;2.88;;
53961;SDS011;39868;53.398;6.564;2022-07-24T01:12:36;6.82;;;3.10;;
53961;SDS011;39868;53.398;6.564;2022-07-24T01:15:05;3.45;;;3.03;;
53961;SDS011;39868;53.398;6.564;2022-07-24T01:17:37;3.60;;;2.75;;
53961;SDS011;39868;53.398;6.564;2022-07-24T01:20:06;5.68;;;2.92;;
53961;SDS011;39868;53.398;6.564;2022-07-24T01:22:35;4.68;;;3.03;;
53961;SDS011;39868;53.398;6.564;2022-07-24T01:25:03;5.47;;;3.08;;
53961;SDS011;39868;53.398;6.564;2022-07-24T01:27:30;3.90;;;2.90;;
53961;SDS011;39868;53.398;6.564;2022-07-24T01:29:58;4.57;;;3.00;;
53961;SDS011;39868;53.398;6.564;2022-07-24T01:32:25;5.60;;;2.90;;
53961;SDS011;39868;53.398;6.564;2022-07-24T01:34:53;7.05;;;3.20;;
53961;SDS011;39868;53.398;6.564;2022-07-24T01:37:21;5.38;;;2.92;;
53961;SDS011;39868;53.398;6.564;2022-07-24T01:39:48;3.40;;;2.70;;
53961;SDS011;39868;53.398;6.564;2022-07-24T01:42:16;5.05;;;3.08;;
53961;SDS011;39868;53.398;6.564;2022-07-24T01:44:47;4.40;;;3.15;;
53961;SDS011;39868;53.398;6.564;2022-07-24T01:47:14;5.00;;;3.75;;
53961;SDS011;39868;53.398;6.564;2022-07-24T01:49:42;3.80;;;2.85;;
53961;SDS011;39868;53.398;6.564;2022-07-24T01:52:10;4.75;;;3.30;;
53961;SDS011;39868;53.398;6.564;2022-07-24T01:54:37;6.85;;;3.17;;
53961;SDS011;39868;53.398;6.564;2022-07-24T01:57:05;3.97;;;3.00;;
53961;SDS011;39868;53.398;6.564;2022-07-24T01:59:32;3.83;;;2.90;;
53961;SDS011;39868;53.398;6.564;2022-07-24T02:02:00;5.20;;;2.92;;
53961;SDS011;39868;53.398;6.564;2022-07-24T02:04:28;5.95;;;3.28;;
53961;SDS011;39868;53.398;6.564;2022-07-24T02:06:55;5.28;;;3.28;;
53961;SDS011;39868;53.398;6.564;2022-07-24T02:09:23;5.20;;;2.70;;
53961;SDS011;39868;53.398;6.564;2022-07-24T02:11:50;5.65;;;3.35;;
53961;SDS011;39868;53.398;6.564;2022-07-24T02:14:18;7.38;;;3.30;;
53961;SDS011;39868;53.398;6.564;2022-07-24T02:16:46;6.05;;;3.40;;
53961;SDS011;39868;53.398;6.564;2022-07-24T02:19:14;4.43;;;3.30;;
53961;SDS011;39868;53.398;6.564;2022-07-24T02:21:42;4.30;;;2.72;;
53961;SDS011;39868;53.398;6.564;2022-07-24T02:24:09;7.60;;;2.90;;
53961;SDS011;39868;53.398;6.564;2022-07-24T02:26:37;3.63;;;2.53;;
53961;SDS011;39868;53.398;6.564;2022-07-24T02:29:04;4.38;;;2.97;;
53961;SDS011;39868;53.398;6.564;2022-07-24T02:31:33;5.05;;;2.95;;
53961;SDS011;39868;53.398;6.564;2022-07-24T02:34:01;5.85;;;3.20;;
53961;SDS011;39868;53.398;6.564;2022-07-24T02:36:28;3.85;;;2.95;;
53961;SDS011;39868;53.398;6.564;2022-07-24T02:38:56;5.43;;;3.10;;
53961;SDS011;39868;53.398;6.564;2022-07-24T02:41:24;5.63;;;3.13;;
53961;SDS011;39868;53.398;6.564;2022-07-24T02:43:51;4.95;;;3.00;;
53961;SDS011;39868;53.398;6.564;2022-07-24T02:46:19;4.85;;;3.08;;
53961;SDS011;39868;53.398;6.564;2022-07-24T02:48:46;6.05;;;3.33;;
53961;SDS011;39868;53.398;6.564;2022-07-24T02:51:14;4.28;;;2.90;;
53961;SDS011;39868;53.398;6.564;2022-07-24T02:53:42;3.50;;;2.72;;
53961;SDS011;39868;53.398;6.564;2022-07-24T02:56:09;4.78;;;2.85;;
53961;SDS011;39868;53.398;6.564;2022-07-24T02:58:37;5.13;;;3.35;;
53961;SDS011;39868;53.398;6.564;2022-07-24T03:01:04;9.98;;;3.47;;
53961;SDS011;39868;53.398;6.564;2022-07-24T03:03:34;5.88;;;2.88;;
53961;SDS011;39868;53.398;6.564;2022-07-24T03:06:02;4.72;;;3.28;;
53961;SDS011;39868;53.398;6.564;2022-07-24T03:08:31;4.57;;;3.15;;
53961;SDS011;39868;53.398;6.564;2022-07-24T03:10:58;4.88;;;3.00;;
53961;SDS011;39868;53.398;6.564;2022-07-24T03:13:26;5.90;;;3.15;;
53961;SDS011;39868;53.398;6.564;2022-07-24T03:15:53;4.68;;;3.22;;
53961;SDS011;39868;53.398;6.564;2022-07-24T03:18:21;4.40;;;3.10;;
53961;SDS011;39868;53.398;6.564;2022-07-24T03:20:49;5.95;;;3.38;;
53961;SDS011;39868;53.398;6.564;2022-07-24T03:23:17;7.65;;;3.40;;
53961;SDS011;39868;53.398;6.564;2022-07-24T03:25:44;4.85;;;3.25;;
53961;SDS011;39868;53.398;6.564;2022-07-24T03:28:14;5.53;;;2.95;;
53961;SDS011;39868;53.398;6.564;2022-07-24T03:30:42;5.03;;;2.97;;
53961;SDS011;39868;53.398;6.564;2022-07-24T03:33:10;5.45;;;2.95;;
53961;SDS011;39868;53.398;6.564;2022-07-24T03:35:38;5.00;;;2.95;;
53961;SDS011;39868;53.398;6.564;2022-07-24T03:38:06;7.78;;;3.70;;
53961;SDS011;39868;53.398;6.564;2022-07-24T03:40:34;6.72;;;3.53;;
53961;SDS011;39868;53.398;6.564;2022-07-24T03:43:02;5.80;;;3.33;;
53961;SDS011;39868;53.398;6.564;2022-07-24T03:45:29;5.43;;;3.22;;
53961;SDS011;39868;53.398;6.564;2022-07-24T03:47:57;11.82;;;4.00;;
53961;SDS011;39868;53.398;6.564;2022-07-24T03:50:25;5.47;;;3.78;;
53961;SDS011;39868;53.398;6.564;2022-07-24T03:52:52;4.82;;;3.22;;
53961;SDS011;39868;53.398;6.564;2022-07-24T03:55:20;5.50;;;3.47;;
53961;SDS011;39868;53.398;6.564;2022-07-24T03:57:48;7.20;;;3.45;;
53961;SDS011;39868;53.398;6.564;2022-07-24T04:00:15;5.18;;;3.20;;
53961;SDS011;39868;53.398;6.564;2022-07-24T04:02:43;6.82;;;3.88;;
53961;SDS011;39868;53.398;6.564;2022-07-24T04:05:10;5.13;;;3.67;;
53961;SDS011;39868;53.398;6.564;2022-07-24T04:07:40;7.85;;;3.60;;
53961;SDS011;39868;53.398;6.564;2022-07-24T04:10:08;6.40;;;3.58;;
53961;SDS011;39868;53.398;6.564;2022-07-24T04:12:36;6.05;;;3.60;;
53961;SDS011;39868;53.398;6.564;2022-07-24T04:15:04;5.95;;;3.60;;
53961;SDS011;39868;53.398;6.564;2022-07-24T04:17:32;6.18;;;3.70;;
53961;SDS011;39868;53.398;6.564;2022-07-24T04:20:03;6.57;;;3.40;;
53961;SDS011;39868;53.398;6.564;2022-07-24T04:22:32;6.90;;;3.75;;
53961;SDS011;39868;53.398;6.564;2022-07-24T04:25:05;5.72;;;3.80;;
53961;SDS011;39868;53.398;6.564;2022-07-24T04:27:34;5.53;;;3.75;;
53961;SDS011;39868;53.398;6.564;2022-07-24T04:30:02;5.68;;;3.42;;
53961;SDS011;39868;53.398;6.564;2022-07-24T04:32:30;5.97;;;3.45;;
53961;SDS011;39868;53.398;6.564;2022-07-24T04:34:58;5.82;;;3.80;;
53961;SDS011;39868;53.398;6.564;2022-07-24T04:37:26;4.53;;;3.40;;
53961;SDS011;39868;53.398;6.564;2022-07-24T04:39:53;6.60;;;3.63;;
53961;SDS011;39868;53.398;6.564;2022-07-24T04:42:21;4.30;;;3.55;;
53961;SDS011;39868;53.398;6.564;2022-07-24T04:44:49;5.68;;;3.60;;
53961;SDS011;39868;53.398;6.564;2022-07-24T04:47:16;5.22;;;3.78;;
53961;SDS011;39868;53.398;6.564;2022-07-24T04:49:44;8.07;;;3.90;;
53961;SDS011;39868;53.398;6.564;2022-07-24T04:52:11;5.13;;;3.80;;
53961;SDS011;39868;53.398;6.564;2022-07-24T04:54:39;8.73;;;3.78;;
53961;SDS011;39868;53.398;6.564;2022-07-24T04:57:06;5.18;;;3.83;;
53961;SDS011;39868;53.398;6.564;2022-07-24T04:59:34;5.20;;;3.85;;
53961;SDS011;39868;53.398;6.564;2022-07-24T05:02:02;5.00;;;3.42;;
53961;SDS011;39868;53.398;6.564;2022-07-24T05:04:29;5.97;;;4.15;;
53961;SDS011;39868;53.398;6.564;2022-07-24T05:06:57;5.18;;;3.60;;
53961;SDS011;39868;53.398;6.564;2022-07-24T05:09:25;4.53;;;3.42;;
53961;SDS011;39868;53.398;6.564;2022-07-24T05:11:52;4.78;;;4.00;;
53961;SDS011;39868;53.398;6.564;2022-07-24T05:14:20;5.07;;;3.42;;
53961;SDS011;39868;53.398;6.564;2022-07-24T05:16:48;5.75;;;3.72;;
53961;SDS011;39868;53.398;6.564;2022-07-24T05:19:16;5.95;;;3.95;;
53961;SDS011;39868;53.398;6.564;2022-07-24T05:21:44;6.32;;;4.07;;
53961;SDS011;39868;53.398;6.564;2022-07-24T05:24:11;6.82;;;3.90;;
53961;SDS011;39868;53.398;6.564;2022-07-24T05:26:39;4.75;;;4.03;;
53961;SDS011;39868;53.398;6.564;2022-07-24T05:29:08;5.70;;;3.90;;
53961;SDS011;39868;53.398;6.564;2022-07-24T05:31:36;8.25;;;4.20;;
53961;SDS011;39868;53.398;6.564;2022-07-24T05:34:07;6.07;;;3.70;;
53961;SDS011;39868;53.398;6.564;2022-07-24T05:36:35;6.40;;;4.10;;
53961;SDS011;39868;53.398;6.564;2022-07-24T05:39:04;7.55;;;3.80;;
53961;SDS011;39868;53.398;6.564;2022-07-24T05:41:33;4.43;;;3.92;;
53961;SDS011;39868;53.398;6.564;2022-07-24T05:44:00;6.13;;;3.97;;
53961;SDS011;39868;53.398;6.564;2022-07-24T05:46:28;5.10;;;4.22;;
53961;SDS011;39868;53.398;6.564;2022-07-24T05:48:56;5.28;;;4.07;;
53961;SDS011;39868;53.398;6.564;2022-07-24T05:51:24;5.85;;;3.78;;
53961;SDS011;39868;53.398;6.564;2022-07-24T05:53:52;5.40;;;4.35;;
53961;SDS011;39868;53.398;6.564;2022-07-24T05:56:20;5.20;;;3.85;;
53961;SDS011;39868;53.398;6.564;2022-07-24T05:58:47;6.57;;;4.00;;
53961;SDS011;39868;53.398;6.564;2022-07-24T06:01:17;5.05;;;4.10;;
53961;SDS011;39868;53.398;6.564;2022-07-24T06:03:44;5.07;;;3.90;;
53961;SDS011;39868;53.398;6.564;2022-07-24T06:06:12;5.55;;;4.13;;
53961;SDS011;39868;53.398;6.564;2022-07-24T06:08:40;6.07;;;4.47;;
53961;SDS011;39868;53.398;6.564;2022-07-24T06:11:07;7.78;;;5.40;;
53961;SDS011;39868;53.398;6.564;2022-07-24T06:13:35;7.85;;;5.20;;
53961;SDS011;39868;53.398;6.564;2022-07-24T06:16:03;7.75;;;5.18;;
53961;SDS011;39868;53.398;6.564;2022-07-24T06:18:31;8.00;;;5.30;;
53961;SDS011;39868;53.398;6.564;2022-07-24T06:20:59;6.88;;;5.40;;
53961;SDS011;39868;53.398;6.564;2022-07-24T06:23:26;7.07;;;5.25;;
53961;SDS011;39868;53.398;6.564;2022-07-24T06:25:54;7.18;;;5.10;;
53961;SDS011;39868;53.398;6.564;2022-07-24T06:28:22;7.15;;;5.45;;
53961;SDS011;39868;53.398;6.564;2022-07-24T06:30:50;7.30;;;5.45;;
53961;SDS011;39868;53.398;6.564;2022-07-24T06:33:18;10.15;;;5.65;;
53961;SDS011;39868;53.398;6.564;2022-07-24T06:35:45;9.40;;;5.82;;
53961;SDS011;39868;53.398;6.564;2022-07-24T06:38:13;7.07;;;5.38;;
53961;SDS011;39868;53.398;6.564;2022-07-24T06:40:42;7.57;;;6.38;;
53961;SDS011;39868;53.398;6.564;2022-07-24T06:43:10;8.48;;;6.25;;
53961;SDS011;39868;53.398;6.564;2022-07-24T06:45:38;8.50;;;5.88;;
53961;SDS011;39868;53.398;6.564;2022-07-24T06:48:05;7.85;;;5.72;;
53961;SDS011;39868;53.398;6.564;2022-07-24T06:50:33;10.23;;;6.35;;
53961;SDS011;39868;53.398;6.564;2022-07-24T06:53:01;10.85;;;6.63;;
53961;SDS011;39868;53.398;6.564;2022-07-24T06:55:29;10.07;;;6.57;;
53961;SDS011;39868;53.398;6.564;2022-07-24T06:57:56;9.80;;;7.05;;
53961;SDS011;39868;53.398;6.564;2022-07-24T07:00:24;10.18;;;7.13;;
53961;SDS011;39868;53.398;6.564;2022-07-24T07:02:51;13.57;;;7.60;;
53961;SDS011;39868;53.398;6.564;2022-07-24T07:05:19;9.93;;;7.50;;
53961;SDS011;39868;53.398;6.564;2022-07-24T07:07:47;11.30;;;7.40;;
53961;SDS011;39868;53.398;6.564;2022-07-24T07:10:14;9.90;;;7.75;;
53961;SDS011;39868;53.398;6.564;2022-07-24T07:12:42;9.93;;;7.30;;
53961;SDS011;39868;53.398;6.564;2022-07-24T07:15:09;8.85;;;7.22;;
53961;SDS011;39868;53.398;6.564;2022-07-24T07:17:38;10.10;;;8.13;;
53961;SDS011;39868;53.398;6.564;2022-07-24T07:20:09;12.63;;;7.88;;
53961;SDS011;39868;53.398;6.564;2022-07-24T07:22:38;10.68;;;7.32;;
53961;SDS011;39868;53.398;6.564;2022-07-24T07:25:07;12.25;;;8.15;;
53961;SDS011;39868;53.398;6.564;2022-07-24T07:27:36;12.70;;;9.05;;
53961;SDS011;39868;53.398;6.564;2022-07-24T07:30:06;13.27;;;8.70;;
53961;SDS011;39868;53.398;6.564;2022-07-24T07:32:36;11.27;;;7.90;;
53961;SDS011;39868;53.398;6.564;2022-07-24T07:35:03;11.77;;;8.43;;
53961;SDS011;39868;53.398;6.564;2022-07-24T07:37:46;11.68;;;7.90;;
53961;SDS011;39868;53.398;6.564;2022-07-24T07:40:14;9.48;;;7.45;;
53961;SDS011;39868;53.398;6.564;2022-07-24T07:42:42;8.38;;;7.05;;
53961;SDS011;39868;53.398;6.564;2022-07-24T07:45:09;8.63;;;7.55;;
53961;SDS011;39868;53.398;6.564;2022-07-24T07:47:37;8.45;;;7.47;;
53961;SDS011;39868;53.398;6.564;2022-07-24T07:50:05;7.70;;;6.85;;
53961;SDS011;39868;53.398;6.564;2022-07-24T07:52:33;10.10;;;7.55;;
53961;SDS011;39868;53.398;6.564;2022-07-24T07:55:00;10.10;;;6.90;;
53961;SDS011;39868;53.398;6.564;2022-07-24T07:57:28;6.50;;;5.90;;
53961;SDS011;39868;53.398;6.564;2022-07-24T08:00:16;8.50;;;6.00;;
53961;SDS011;39868;53.398;6.564;2022-07-24T08:02:45;7.57;;;6.40;;
53961;SDS011;39868;53.398;6.564;2022-07-24T08:05:13;6.60;;;5.82;;
53961;SDS011;39868;53.398;6.564;2022-07-24T08:07:40;7.43;;;5.88;;
53961;SDS011;39868;53.398;6.564;2022-07-24T08:10:09;7.13;;;5.80;;
53961;SDS011;39868;53.398;6.564;2022-07-24T08:12:38;7.22;;;6.00;;
53961;SDS011;39868;53.398;6.564;2022-07-24T08:15:07;9.68;;;6.47;;
53961;SDS011;39868;53.398;6.564;2022-07-24T08:17:35;6.88;;;6.22;;
53961;SDS011;39868;53.398;6.564;2022-07-24T08:20:03;8.45;;;6.53;;
53961;SDS011;39868;53.398;6.564;2022-07-24T08:22:32;7.65;;;6.28;;
53961;SDS011;39868;53.398;6.564;2022-07-24T08:24:59;6.60;;;6.00;;
53961;SDS011;39868;53.398;6.564;2022-07-24T08:27:27;6.95;;;5.90;;
53961;SDS011;39868;53.398;6.564;2022-07-24T08:29:54;7.32;;;5.72;;
53961;SDS011;39868;53.398;6.564;2022-07-24T08:32:22;6.95;;;5.88;;
53961;SDS011;39868;53.398;6.564;2022-07-24T08:34:50;7.25;;;5.72;;
53961;SDS011;39868;53.398;6.564;2022-07-24T08:37:20;9.85;;;5.60;;
53961;SDS011;39868;53.398;6.564;2022-07-24T08:39:48;6.38;;;5.82;;
53961;SDS011;39868;53.398;6.564;2022-07-24T08:42:16;6.93;;;5.50;;
53961;SDS011;39868;53.398;6.564;2022-07-24T08:44:43;8.25;;;5.82;;
53961;SDS011;39868;53.398;6.564;2022-07-24T08:47:11;7.03;;;5.93;;
53961;SDS011;39868;53.398;6.564;2022-07-24T08:49:41;6.28;;;5.45;;
53961;SDS011;39868;53.398;6.564;2022-07-24T08:52:13;6.35;;;5.75;;
53961;SDS011;39868;53.398;6.564;2022-07-24T08:54:42;7.00;;;6.30;;
53961;SDS011;39868;53.398;6.564;2022-07-24T08:57:10;6.18;;;5.57;;
53961;SDS011;39868;53.398;6.564;2022-07-24T08:59:37;7.18;;;6.43;;
53961;SDS011;39868;53.398;6.564;2022-07-24T09:02:05;9.40;;;5.93;;
53961;SDS011;39868;53.398;6.564;2022-07-24T09:04:34;8.20;;;6.60;;
53961;SDS011;39868;53.398;6.564;2022-07-24T09:07:10;6.32;;;5.72;;
53961;SDS011;39868;53.398;6.564;2022-07-24T09:09:40;7.53;;;6.07;;
53961;SDS011;39868;53.398;6.564;2022-07-24T09:12:17;5.97;;;5.47;;
53961;SDS011;39868;53.398;6.564;2022-07-24T09:14:45;5.90;;;5.43;;
53961;SDS011;39868;53.398;6.564;2022-07-24T09:17:15;6.68;;;5.95;;
53961;SDS011;39868;53.398;6.564;2022-07-24T09:19:56;6.00;;;5.50;;
53961;SDS011;39868;53.398;6.564;2022-07-24T09:25:11;6.65;;;6.07;;
53961;SDS011;39868;53.398;6.564;2022-07-24T09:30:29;5.50;;;5.00;;
53961;SDS011;39868;53.398;6.564;2022-07-24T09:33:00;5.80;;;5.20;;
53961;SDS011;39868;53.398;6.564;2022-07-24T09:35:31;6.95;;;5.72;;
53961;SDS011;39868;53.398;6.564;2022-07-24T09:38:09;6.20;;;5.68;;
53961;SDS011;39868;53.398;6.564;2022-07-24T09:40:51;6.32;;;5.72;;
53961;SDS011;39868;53.398;6.564;2022-07-24T09:43:22;6.20;;;5.47;;
53961;SDS011;39868;53.398;6.564;2022-07-24T09:46:09;5.95;;;5.45;;
53961;SDS011;39868;53.398;6.564;2022-07-24T09:48:39;6.25;;;5.75;;
53961;SDS011;39868;53.398;6.564;2022-07-24T09:51:18;5.90;;;5.40;;
53961;SDS011;39868;53.398;6.564;2022-07-24T09:53:46;6.22;;;5.40;;
53961;SDS011;39868;53.398;6.564;2022-07-24T09:56:19;8.15;;;5.80;;
53961;SDS011;39868;53.398;6.564;2022-07-24T09:58:48;6.10;;;5.57;;
53961;SDS011;39868;53.398;6.564;2022-07-24T10:01:19;5.60;;;5.13;;
53961;SDS011;39868;53.398;6.564;2022-07-24T10:03:49;5.88;;;5.35;;
53961;SDS011;39868;53.398;6.564;2022-07-24T10:06:25;6.50;;;5.80;;
53961;SDS011;39868;53.398;6.564;2022-07-24T10:08:53;6.05;;;5.55;;
53961;SDS011;39868;53.398;6.564;2022-07-24T10:11:22;6.47;;;5.55;;
53961;SDS011;39868;53.398;6.564;2022-07-24T10:13:50;5.63;;;5.13;;
53961;SDS011;39868;53.398;6.564;2022-07-24T10:16:28;5.93;;;5.38;;
53961;SDS011;39868;53.398;6.564;2022-07-24T10:21:30;5.30;;;4.85;;
53961;SDS011;39868;53.398;6.564;2022-07-24T10:26:39;5.50;;;5.03;;
53961;SDS011;39868;53.398;6.564;2022-07-24T10:29:12;5.57;;;5.10;;
53961;SDS011;39868;53.398;6.564;2022-07-24T10:31:45;5.63;;;5.22;;
53961;SDS011;39868;53.398;6.564;2022-07-24T10:34:19;6.35;;;5.72;;
53961;SDS011;39868;53.398;6.564;2022-07-24T10:37:09;6.38;;;5.88;;
53961;SDS011;39868;53.398;6.564;2022-07-24T10:39:42;5.97;;;5.47;;
53961;SDS011;39868;53.398;6.564;2022-07-24T10:42:31;6.10;;;5.60;;
53961;SDS011;39868;53.398;6.564;2022-07-24T10:45:20;5.95;;;5.35;;
53961;SDS011;39868;53.398;6.564;2022-07-24T10:47:47;5.55;;;5.03;;
53961;SDS011;39868;53.398;6.564;2022-07-24T10:50:14;5.88;;;5.32;;
53961;SDS011;39868;53.398;6.564;2022-07-24T10:52:43;5.88;;;5.35;;
53961;SDS011;39868;53.398;6.564;2022-07-24T10:55:33;5.45;;;4.95;;
53961;SDS011;39868;53.398;6.564;2022-07-24T11:00:51;5.50;;;5.10;;
53961;SDS011;39868;53.398;6.564;2022-07-24T11:03:20;5.70;;;5.15;;
53961;SDS011;39868;53.398;6.564;2022-07-24T11:06:13;5.57;;;5.15;;
53961;SDS011;39868;53.398;6.564;2022-07-24T11:08:48;5.43;;;4.93;;
53961;SDS011;39868;53.398;6.564;2022-07-24T11:11:20;6.28;;;5.47;;
53961;SDS011;39868;53.398;6.564;2022-07-24T11:13:52;5.80;;;5.40;;
53961;SDS011;39868;53.398;6.564;2022-07-24T11:16:24;6.03;;;5.53;;
53961;SDS011;39868;53.398;6.564;2022-07-24T11:21:27;7.63;;;5.38;;
53961;SDS011;39868;53.398;6.564;2022-07-24T11:26:47;5.75;;;5.20;;
53961;SDS011;39868;53.398;6.564;2022-07-24T11:29:21;6.75;;;5.72;;
53961;SDS011;39868;53.398;6.564;2022-07-24T11:31:58;5.35;;;4.95;;
53961;SDS011;39868;53.398;6.564;2022-07-24T11:34:28;5.23;;;4.83;;
53961;SDS011;39868;53.398;6.564;2022-07-24T11:36:57;5.10;;;4.70;;
53961;SDS011;39868;53.398;6.564;2022-07-24T11:39:33;5.35;;;4.95;;
53961;SDS011;39868;53.398;6.564;2022-07-24T11:42:03;5.53;;;4.97;;
53961;SDS011;39868;53.398;6.564;2022-07-24T11:44:33;6.47;;;5.28;;
53961;SDS011;39868;53.398;6.564;2022-07-24T11:47:09;4.78;;;4.47;;
53961;SDS011;39868;53.398;6.564;2022-07-24T11:49:44;5.50;;;5.10;;
53961;SDS011;39868;53.398;6.564;2022-07-24T11:52:14;4.97;;;4.57;;
53961;SDS011;39868;53.398;6.564;2022-07-24T11:54:43;5.47;;;4.97;;
53961;SDS011;39868;53.398;6.564;2022-07-24T12:00:11;5.35;;;4.78;;
53961;SDS011;39868;53.398;6.564;2022-07-24T12:08:01;5.38;;;4.88;;
53961;SDS011;39868;53.398;6.564;2022-07-24T12:10:30;5.50;;;4.80;;
53961;SDS011;39868;53.398;6.564;2022-07-24T12:12:58;8.10;;;4.65;;
53961;SDS011;39868;53.398;6.564;2022-07-24T12:15:26;4.97;;;4.57;;
53961;SDS011;39868;53.398;6.564;2022-07-24T12:17:55;5.28;;;4.50;;
53961;SDS011;39868;53.398;6.564;2022-07-24T12:20:28;5.47;;;4.97;;
53961;SDS011;39868;53.398;6.564;2022-07-24T12:22:57;5.78;;;5.30;;
53961;SDS011;39868;53.398;6.564;2022-07-24T12:25:26;4.65;;;4.25;;
53961;SDS011;39868;53.398;6.564;2022-07-24T12:28:07;7.95;;;4.95;;
53961;SDS011;39868;53.398;6.564;2022-07-24T12:30:38;5.45;;;3.90;;
53961;SDS011;39868;53.398;6.564;2022-07-24T12:33:18;4.97;;;4.57;;
53961;SDS011;39868;53.398;6.564;2022-07-24T12:38:37;5.28;;;4.68;;
53961;SDS011;39868;53.398;6.564;2022-07-24T12:41:10;5.10;;;4.70;;
53961;SDS011;39868;53.398;6.564;2022-07-24T12:43:52;4.65;;;4.25;;
53961;SDS011;39868;53.398;6.564;2022-07-24T12:46:22;5.30;;;4.80;;
53961;SDS011;39868;53.398;6.564;2022-07-24T12:49:12;5.22;;;4.68;;
53961;SDS011;39868;53.398;6.564;2022-07-24T12:51:57;4.60;;;4.20;;
53961;SDS011;39868;53.398;6.564;2022-07-24T12:54:33;4.63;;;4.22;;
53961;SDS011;39868;53.398;6.564;2022-07-24T12:57:09;4.22;;;3.83;;
53961;SDS011;39868;53.398;6.564;2022-07-24T12:59:44;4.68;;;4.28;;
53961;SDS011;39868;53.398;6.564;2022-07-24T13:02:15;3.90;;;3.60;;
53961;SDS011;39868;53.398;6.564;2022-07-24T13:04:49;4.28;;;3.97;;
53961;SDS011;39868;53.398;6.564;2022-07-24T13:07:20;5.85;;;4.10;;
53961;SDS011;39868;53.398;6.564;2022-07-24T13:09:49;4.47;;;4.07;;
53961;SDS011;39868;53.398;6.564;2022-07-24T13:12:18;4.03;;;3.72;;
53961;SDS011;39868;53.398;6.564;2022-07-24T13:14:47;4.60;;;3.75;;
53961;SDS011;39868;53.398;6.564;2022-07-24T13:17:15;4.18;;;3.78;;
53961;SDS011;39868;53.398;6.564;2022-07-24T13:19:45;4.15;;;3.70;;
53961;SDS011;39868;53.398;6.564;2022-07-24T13:22:16;3.93;;;3.63;;
53961;SDS011;39868;53.398;6.564;2022-07-24T13:24:43;4.05;;;3.65;;
53961;SDS011;39868;53.398;6.564;2022-07-24T13:27:12;4.32;;;3.92;;
53961;SDS011;39868;53.398;6.564;2022-07-24T13:29:41;4.60;;;3.90;;
53961;SDS011;39868;53.398;6.564;2022-07-24T13:32:09;4.18;;;3.75;;
53961;SDS011;39868;53.398;6.564;2022-07-24T13:34:37;3.80;;;3.50;;
53961;SDS011;39868;53.398;6.564;2022-07-24T13:37:05;3.60;;;3.40;;
53961;SDS011;39868;53.398;6.564;2022-07-24T13:39:36;4.22;;;3.92;;
53961;SDS011;39868;53.398;6.564;2022-07-24T13:42:07;3.90;;;3.60;;
53961;SDS011;39868;53.398;6.564;2022-07-24T13:44:35;4.40;;;3.80;;
53961;SDS011;39868;53.398;6.564;2022-07-24T13:47:03;4.43;;;4.03;;
53961;SDS011;39868;53.398;6.564;2022-07-24T13:49:31;4.57;;;4.18;;
53961;SDS011;39868;53.398;6.564;2022-07-24T13:51:59;4.22;;;3.92;;
53961;SDS011;39868;53.398;6.564;2022-07-24T13:54:26;4.28;;;3.92;;
53961;SDS011;39868;53.398;6.564;2022-07-24T13:56:54;4.10;;;3.80;;
53961;SDS011;39868;53.398;6.564;2022-07-24T13:59:23;3.83;;;3.53;;
53961;SDS011;39868;53.398;6.564;2022-07-24T14:01:51;4.53;;;3.85;;
53961;SDS011;39868;53.398;6.564;2022-07-24T14:04:18;4.03;;;3.72;;
53961;SDS011;39868;53.398;6.564;2022-07-24T14:06:53;4.95;;;3.90;;
53961;SDS011;39868;53.398;6.564;2022-07-24T14:09:21;4.20;;;3.90;;
53961;SDS011;39868;53.398;6.564;2022-07-24T14:11:50;4.57;;;4.00;;
53961;SDS011;39868;53.398;6.564;2022-07-24T14:14:18;3.90;;;3.60;;
53961;SDS011;39868;53.398;6.564;2022-07-24T14:16:46;4.00;;;3.60;;
53961;SDS011;39868;53.398;6.564;2022-07-24T14:19:14;4.13;;;3.83;;
53961;SDS011;39868;53.398;6.564;2022-07-24T14:21:42;4.10;;;3.80;;
53961;SDS011;39868;53.398;6.564;2022-07-24T14:24:15;4.20;;;3.90;;
53961;SDS011;39868;53.398;6.564;2022-07-24T14:26:45;5.35;;;4.10;;
53961;SDS011;39868;53.398;6.564;2022-07-24T14:29:13;4.78;;;4.30;;
53961;SDS011;39868;53.398;6.564;2022-07-24T14:31:41;4.53;;;4.13;;
53961;SDS011;39868;53.398;6.564;2022-07-24T14:34:09;4.93;;;4.20;;
53961;SDS011;39868;53.398;6.564;2022-07-24T14:36:36;4.53;;;4.00;;
53961;SDS011;39868;53.398;6.564;2022-07-24T14:39:04;4.30;;;3.90;;
53961;SDS011;39868;53.398;6.564;2022-07-24T14:41:32;4.15;;;3.85;;
53961;SDS011;39868;53.398;6.564;2022-07-24T14:44:00;4.60;;;4.30;;
53961;SDS011;39868;53.398;6.564;2022-07-24T14:46:35;4.53;;;4.22;;
53961;SDS011;39868;53.398;6.564;2022-07-24T14:49:03;4.28;;;3.88;;
53961;SDS011;39868;53.398;6.564;2022-07-24T14:51:31;4.40;;;3.88;;
53961;SDS011;39868;53.398;6.564;2022-07-24T14:53:59;4.38;;;4.05;;
53961;SDS011;39868;53.398;6.564;2022-07-24T14:56:26;4.35;;;4.03;;
53961;SDS011;39868;53.398;6.564;2022-07-24T14:58:54;4.07;;;3.78;;
53961;SDS011;39868;53.398;6.564;2022-07-24T15:01:21;4.22;;;3.88;;
53961;SDS011;39868;53.398;6.564;2022-07-24T15:03:49;4.80;;;4.40;;
53961;SDS011;39868;53.398;6.564;2022-07-24T15:06:17;4.50;;;4.10;;
53961;SDS011;39868;53.398;6.564;2022-07-24T15:08:45;4.32;;;3.92;;
53961;SDS011;39868;53.398;6.564;2022-07-24T15:11:13;4.80;;;4.40;;
53961;SDS011;39868;53.398;6.564;2022-07-24T15:13:41;4.38;;;3.97;;
53961;SDS011;39868;53.398;6.564;2022-07-24T15:16:09;4.70;;;4.30;;
53961;SDS011;39868;53.398;6.564;2022-07-24T15:18:36;5.80;;;4.60;;
53961;SDS011;39868;53.398;6.564;2022-07-24T15:21:04;5.03;;;4.22;;
53961;SDS011;39868;53.398;6.564;2022-07-24T15:23:32;4.50;;;4.20;;
53961;SDS011;39868;53.398;6.564;2022-07-24T15:26:00;4.32;;;4.03;;
53961;SDS011;39868;53.398;6.564;2022-07-24T15:28:29;4.40;;;4.10;;
53961;SDS011;39868;53.398;6.564;2022-07-24T15:30:57;4.65;;;4.25;;